Time;durP1;ratioP1;P1;durP2;ratioP2;P2;SDS_P1;SDS_P2;PMS_P1;PMS_P2;Temp;Humidity;BMP_temperature;BMP_pressure;BME280_temperature;BME280_humidity;BME280_pressure;Samples;Min_cycle;Max_cycle;Signal;HPM_P1;HPM_P2
2021/09/29 00:01:08;;;;;;;10.53;7.28;;;26.30;99.90;;;;;;1871467;75;21131;-90
2021/09/29 00:03:39;;;;;;;10.90;5.92;;;26.30;99.90;;;;;;1888220;74;21634;-90
2021/09/29 00:09:22;;;;;;;11.43;6.62;;;26.40;99.90;;;;;;1836234;76;21135;-91
2021/09/29 00:11:54;;;;;;;8.68;5.62;;;26.50;99.90;;;;;;1883007;75;21139;-90
2021/09/29 00:14:25;;;;;;;12.98;6.83;;;26.50;99.90;;;;;;1881271;75;21202;-90
2021/09/29 00:16:55;;;;;;;14.50;5.95;;;26.50;99.90;;;;;;1882268;75;21220;-89
2021/09/29 00:19:27;;;;;;;8.93;5.72;;;26.50;99.90;;;;;;1861838;76;21143;-91
2021/09/29 00:21:58;;;;;;;11.73;4.90;;;26.60;99.90;;;;;;1891085;74;21759;-89
2021/09/29 00:24:29;;;;;;;8.08;4.65;;;26.60;99.90;;;;;;1897607;74;21288;-89
2021/09/29 00:26:59;;;;;;;9.23;5.70;;;26.60;99.90;;;;;;1838832;76;21205;-89
2021/09/29 00:29:30;;;;;;;11.35;5.42;;;26.60;99.90;;;;;;1853374;75;21132;-89
2021/09/29 00:32:05;;;;;;;11.40;6.65;;;26.70;99.90;;;;;;1864603;75;21244;-90
2021/09/29 00:34:36;;;;;;;11.22;6.25;;;26.70;99.90;;;;;;1884444;75;21142;-89
2021/09/29 00:40:22;;;;;;;7.25;5.35;;;26.80;99.90;;;;;;1872914;74;21098;-89
2021/09/29 00:42:53;;;;;;;10.95;5.90;;;26.90;99.90;;;;;;1861677;75;21143;-90
2021/09/29 00:45:24;;;;;;;11.43;6.15;;;26.90;99.90;;;;;;1894019;73;21142;-90
2021/09/29 00:47:54;;;;;;;10.72;6.05;;;27.00;99.90;;;;;;1901673;73;21714;-89
2021/09/29 00:50:25;;;;;;;9.15;5.53;;;27.10;99.90;;;;;;1903219;73;21064;-86
2021/09/29 00:52:58;;;;;;;8.30;5.25;;;27.10;99.90;;;;;;1940007;72;21655;-88
2021/09/29 00:55:29;;;;;;;7.25;5.50;;;27.20;99.90;;;;;;1911335;74;21648;-90
2021/09/29 00:57:59;;;;;;;10.03;5.78;;;27.20;99.90;;;;;;1961076;72;21630;-89
2021/09/29 01:00:30;;;;;;;9.33;4.85;;;27.30;99.90;;;;;;1907363;74;21092;-87
2021/09/29 01:03:02;;;;;;;8.90;5.60;;;27.30;99.90;;;;;;1917889;73;21132;-88
2021/09/29 01:05:33;;;;;;;7.20;4.90;;;27.30;99.90;;;;;;1960161;72;21071;-89
2021/09/29 01:15:05;;;;;;;7.78;5.28;;;27.50;99.90;;;;;;1948875;72;21099;-88
2021/09/29 01:17:38;;;;;;;7.92;5.47;;;27.60;99.90;;;;;;1954637;72;21056;-91
2021/09/29 01:20:11;;;;;;;11.93;6.33;;;27.60;99.90;;;;;;1948729;72;21163;-92
2021/09/29 01:22:45;;;;;;;11.03;6.80;;;27.70;99.90;;;;;;1955871;72;21084;-89
2021/09/29 01:25:18;;;;;;;11.80;6.45;;;27.80;99.90;;;;;;1943432;72;21201;-90
2021/09/29 01:28:08;;;;;;;9.25;5.87;;;27.80;99.90;;;;;;1950279;72;21194;-89
2021/09/29 01:30:59;;;;;;;7.92;5.50;;;27.90;99.90;;;;;;1943904;70;21124;-89
2021/09/29 01:33:32;;;;;;;9.65;6.60;;;28.00;99.90;;;;;;1961103;70;21147;-89
2021/09/29 01:36:06;;;;;;;10.93;6.65;;;28.00;99.90;;;;;;1933371;72;21177;-88
2021/09/29 01:39:07;;;;;;;8.78;6.55;;;28.10;99.90;;;;;;1960923;71;21072;-89
2021/09/29 01:41:37;;;;;;;12.25;6.58;;;28.20;99.90;;;;;;1964322;71;21049;-88
2021/09/29 01:44:08;;;;;;;9.98;5.65;;;28.30;99.90;;;;;;1957580;71;21095;-90
2021/09/29 01:46:40;;;;;;;10.60;6.55;;;28.40;99.90;;;;;;1943112;72;21574;-91
2021/09/29 01:49:39;;;;;;;10.05;6.70;;;28.40;99.90;;;;;;1931742;72;21154;-91
2021/09/29 01:52:11;;;;;;;8.80;5.65;;;28.50;99.90;;;;;;1945138;73;21052;-92
2021/09/29 02:04:51;;;;;;;8.68;5.42;;;28.80;99.90;;;;;;1895913;73;21148;-76
2021/09/29 02:07:22;;;;;;;7.95;5.22;;;28.90;99.90;;;;;;1905822;75;21217;-76
2021/09/29 02:09:53;;;;;;;8.88;6.15;;;29.00;99.90;;;;;;1894805;75;21161;-75
2021/09/29 02:12:24;;;;;;;14.68;6.25;;;29.00;99.90;;;;;;1902384;75;21643;-76
2021/09/29 02:14:54;;;;;;;7.60;5.60;;;29.10;99.90;;;;;;1875223;75;21116;-75
2021/09/29 02:17:25;;;;;;;6.92;5.80;;;29.20;99.90;;;;;;1846360;76;21748;-75
2021/09/29 02:19:56;;;;;;;9.83;6.10;;;29.30;99.90;;;;;;1915578;73;21175;-74
2021/09/29 02:22:27;;;;;;;8.55;5.30;;;29.40;99.90;;;;;;1898303;75;21720;-77
2021/09/29 02:25:05;;;;;;;8.60;5.83;;;29.50;99.90;;;;;;1902384;75;21155;-76
2021/09/29 02:27:36;;;;;;;7.92;5.92;;;29.50;99.90;;;;;;1898102;73;21167;-74
2021/09/29 02:33:18;;;;;;;6.05;4.47;;;29.80;99.90;;;;;;1786220;78;21269;-76
2021/09/29 02:39:30;;;;;;;6.17;4.62;;;30.00;99.90;;;;;;1834586;77;21648;-76
2021/09/29 02:42:03;;;;;;;7.80;4.75;;;30.10;99.90;;;;;;1852032;75;21111;-76
2021/09/29 02:44:33;;;;;;;7.20;4.87;;;30.20;99.90;;;;;;1842168;76;21238;-75
2021/09/29 02:47:04;;;;;;;7.50;4.50;;;30.30;99.90;;;;;;1810415;78;21163;-79
2021/09/29 02:49:35;;;;;;;6.62;4.65;;;30.40;99.90;;;;;;1842263;76;21573;-79
2021/09/29 02:52:06;;;;;;;6.00;4.12;;;30.50;99.90;;;;;;1847215;77;21144;-79
2021/09/29 02:54:37;;;;;;;7.92;4.53;;;30.60;99.70;;;;;;1838949;76;21270;-79
2021/09/29 02:57:08;;;;;;;6.65;4.10;;;30.80;99.20;;;;;;1841511;76;21666;-77
2021/09/29 02:59:38;;;;;;;6.62;3.52;;;30.90;99.00;;;;;;1845824;77;21180;-79
2021/09/29 03:02:09;;;;;;;7.55;4.33;;;31.00;98.20;;;;;;1847663;77;21172;-78
2021/09/29 03:04:40;;;;;;;6.72;4.08;;;31.20;98.90;;;;;;1848050;77;21187;-77
2021/09/29 03:07:11;;;;;;;6.70;4.25;;;31.20;98.50;;;;;;1847863;77;21202;-80
2021/09/29 03:09:42;;;;;;;6.70;4.33;;;31.40;98.20;;;;;;1866414;73;21173;-77
2021/09/29 03:12:12;;;;;;;6.50;4.10;;;31.50;98.10;;;;;;1944246;74;21100;-77
2021/09/29 03:14:43;;;;;;;7.00;3.92;;;31.60;97.90;;;;;;1944362;74;21128;-78
2021/09/29 03:17:18;;;;;;;5.40;3.45;;;31.70;97.20;;;;;;1944436;74;21143;-80
2021/09/29 03:19:48;;;;;;;6.03;3.70;;;31.90;96.40;;;;;;1925027;74;21091;-79
2021/09/29 03:22:19;;;;;;;5.35;3.87;;;32.00;96.30;;;;;;1927068;73;21098;-78
2021/09/29 03:24:50;;;;;;;4.83;3.70;;;32.10;96.60;;;;;;1923573;73;21150;-79
2021/09/29 03:27:21;;;;;;;5.22;4.20;;;32.20;95.80;;;;;;1946359;73;21060;-78
2021/09/29 03:29:52;;;;;;;4.95;3.40;;;32.30;95.90;;;;;;1959611;73;21072;-79
2021/09/29 03:32:26;;;;;;;4.53;3.35;;;32.40;95.10;;;;;;1945561;73;21573;-79
2021/09/29 03:34:57;;;;;;;4.35;3.30;;;32.40;95.30;;;;;;1936545;74;21089;-80
2021/09/29 03:37:28;;;;;;;4.60;3.10;;;32.50;93.60;;;;;;1913450;74;21207;-79
2021/09/29 03:39:59;;;;;;;9.00;3.22;;;32.60;93.40;;;;;;1933095;73;21567;-78
2021/09/29 03:42:30;;;;;;;5.22;3.72;;;32.70;93.00;;;;;;1932031;73;21148;-77
2021/09/29 03:45:01;;;;;;;5.80;2.90;;;32.70;93.10;;;;;;1930240;73;21145;-78
2021/09/29 03:47:32;;;;;;;4.37;3.47;;;32.90;92.60;;;;;;1921075;73;21172;-78
2021/09/29 03:50:04;;;;;;;5.80;3.37;;;32.90;92.60;;;;;;1904225;73;21081;-77
2021/09/29 03:52:35;;;;;;;6.05;3.65;;;33.00;92.90;;;;;;1913548;74;21164;-77
2021/09/29 03:55:07;;;;;;;5.33;3.20;;;33.00;93.10;;;;;;1932953;73;21528;-76
2021/09/29 03:57:39;;;;;;;4.47;3.30;;;33.10;99.90;;;;;;1932438;74;21145;-80
2021/09/29 04:00:12;;;;;;;4.15;3.45;;;33.40;92.80;;;;;;1936660;73;21543;-78
2021/09/29 04:02:43;;;;;;;4.40;2.90;;;33.00;92.50;;;;;;1925500;72;21197;-77
2021/09/29 04:05:15;;;;;;;5.42;3.85;;;33.10;91.90;;;;;;1920342;73;21091;-76
2021/09/29 04:07:45;;;;;;;5.20;3.10;;;33.20;92.00;;;;;;1953761;73;21084;-76
2021/09/29 04:10:26;;;;;;;5.17;3.08;;;33.20;91.50;;;;;;1935303;73;21213;-77
2021/09/29 04:12:54;;;;;;;4.35;2.95;;;33.20;91.80;;;;;;1922891;72;21153;-79
2021/09/29 04:15:26;;;;;;;3.67;2.77;;;33.30;91.10;;;;;;1926031;73;21138;-81
2021/09/29 04:17:59;;;;;;;3.70;3.05;;;33.30;90.20;;;;;;1885985;75;21193;-80
2021/09/29 04:20:33;;;;;;;5.53;2.95;;;33.40;90.60;;;;;;1877008;75;21176;-76
2021/09/29 04:23:07;;;;;;;4.40;2.80;;;33.40;91.00;;;;;;1907402;75;22168;-78
2021/09/29 04:25:41;;;;;;;4.22;2.65;;;33.40;88.90;;;;;;1900804;73;21647;-79
2021/09/29 04:28:12;;;;;;;5.55;3.90;;;33.50;87.80;;;;;;1899470;73;21591;-79
2021/09/29 04:30:43;;;;;;;4.83;2.58;;;33.50;89.00;;;;;;1892818;75;21147;-78
2021/09/29 04:33:15;;;;;;;4.22;2.85;;;33.50;87.20;;;;;;1942224;73;21103;-77
2021/09/29 04:35:46;;;;;;;5.35;2.60;;;33.70;87.40;;;;;;1935137;73;21166;-79
2021/09/29 04:38:16;;;;;;;5.35;3.00;;;33.80;87.60;;;;;;1948097;73;21516;-79
2021/09/29 04:40:50;;;;;;;4.17;2.80;;;33.80;88.30;;;;;;1924836;73;21125;-78
2021/09/29 04:43:21;;;;;;;4.33;2.87;;;33.90;87.60;;;;;;1914978;73;21191;-79
2021/09/29 04:45:52;;;;;;;4.20;3.27;;;33.90;88.70;;;;;;1918902;72;21531;-78
2021/09/29 04:48:23;;;;;;;4.65;3.17;;;34.00;87.60;;;;;;1935892;72;21087;-78
2021/09/29 04:50:54;;;;;;;4.58;3.20;;;34.00;88.30;;;;;;1924416;74;21208;-80
2021/09/29 04:53:25;;;;;;;7.87;3.45;;;33.90;87.90;;;;;;1921938;74;21137;-77
2021/09/29 04:55:59;;;;;;;4.87;3.40;;;34.00;88.00;;;;;;1923277;73;21120;-78
2021/09/29 04:58:30;;;;;;;4.92;3.60;;;34.10;86.90;;;;;;1917928;73;21171;-78
2021/09/29 05:01:01;;;;;;;6.45;2.75;;;34.10;87.50;;;;;;1903652;75;21753;-79
2021/09/29 05:03:33;;;;;;;5.30;3.20;;;34.20;84.80;;;;;;1909986;74;21101;-79
2021/09/29 05:06:04;;;;;;;5.12;3.20;;;34.30;85.40;;;;;;1915206;74;21101;-78
2021/09/29 05:08:38;;;;;;;4.83;3.55;;;34.30;86.20;;;;;;1940281;72;21036;-78
2021/09/29 05:11:11;;;;;;;3.83;2.65;;;34.30;86.10;;;;;;1945027;72;21143;-78
2021/09/29 05:13:42;;;;;;;6.75;3.02;;;34.20;86.90;;;;;;1955512;73;21188;-79
2021/09/29 05:16:14;;;;;;;3.98;2.87;;;34.10;86.30;;;;;;1955838;72;21115;-79
2021/09/29 05:18:45;;;;;;;3.77;3.02;;;34.10;86.60;;;;;;1928955;73;21475;-76
2021/09/29 05:21:15;;;;;;;4.28;2.70;;;34.10;86.50;;;;;;1954783;72;21260;-78
2021/09/29 05:23:46;;;;;;;4.65;3.08;;;34.10;87.10;;;;;;1942979;73;21672;-78
2021/09/29 05:26:18;;;;;;;4.45;3.12;;;34.10;85.80;;;;;;1933262;73;21139;-78
2021/09/29 05:28:51;;;;;;;6.25;3.25;;;34.00;86.90;;;;;;1924791;73;21181;-78
2021/09/29 05:31:22;;;;;;;4.50;3.08;;;34.00;85.60;;;;;;1937450;73;21162;-79
2021/09/29 05:33:52;;;;;;;4.05;2.25;;;34.10;85.60;;;;;;1954746;73;21547;-79
2021/09/29 05:36:23;;;;;;;3.37;2.60;;;34.10;83.70;;;;;;1954977;73;21562;-79
2021/09/29 05:38:55;;;;;;;5.33;2.90;;;34.10;81.30;;;;;;1951186;73;21119;-80
2021/09/29 05:41:29;;;;;;;5.12;3.33;;;34.10;83.70;;;;;;1922210;73;21164;-77
2021/09/29 05:44:00;;;;;;;4.08;2.72;;;34.10;85.40;;;;;;1916539;72;21183;-79
2021/09/29 05:46:32;;;;;;;5.97;3.47;;;34.20;84.50;;;;;;1874874;75;21731;-79
2021/09/29 05:49:04;;;;;;;4.58;3.35;;;34.20;83.60;;;;;;1905162;75;21101;-78
2021/09/29 05:51:34;;;;;;;5.42;2.92;;;34.30;84.30;;;;;;1882180;75;21060;-79
2021/09/29 05:54:05;;;;;;;5.20;2.67;;;34.30;82.00;;;;;;1896742;75;21064;-79
2021/09/29 05:56:36;;;;;;;4.97;3.02;;;34.30;82.40;;;;;;1956975;72;21078;-80
2021/09/29 05:59:07;;;;;;;3.40;2.55;;;34.30;82.90;;;;;;1927009;72;21109;-81
2021/09/29 06:01:38;;;;;;;4.35;2.80;;;34.40;82.40;;;;;;1950430;72;21930;-80
2021/09/29 06:04:11;;;;;;;5.75;3.02;;;34.40;82.00;;;;;;1925989;72;21150;-78
2021/09/29 06:06:42;;;;;;;5.75;4.12;;;34.50;82.20;;;;;;1910312;74;21086;-81
2021/09/29 06:09:13;;;;;;;3.52;2.65;;;34.50;79.60;;;;;;1917863;73;21092;-80
2021/09/29 06:11:45;;;;;;;4.80;2.62;;;34.60;80.00;;;;;;1901374;75;21466;-81
2021/09/29 06:14:16;;;;;;;3.45;2.72;;;34.70;79.10;;;;;;1922352;73;21201;-80
2021/09/29 06:16:47;;;;;;;7.35;3.02;;;34.70;80.80;;;;;;1938780;73;21084;-80
2021/09/29 06:19:18;;;;;;;3.62;2.35;;;34.70;80.20;;;;;;1945014;73;21123;-79
2021/09/29 06:21:48;;;;;;;6.25;2.80;;;34.70;77.80;;;;;;1920032;73;21127;-78
2021/09/29 06:24:19;;;;;;;4.40;2.60;;;34.60;78.50;;;;;;1932898;72;21100;-80
2021/09/29 06:26:50;;;;;;;4.62;3.05;;;34.60;78.40;;;;;;1894700;75;21128;-80
2021/09/29 06:29:21;;;;;;;5.72;3.20;;;34.50;79.70;;;;;;1899565;75;21200;-79
2021/09/29 06:31:56;;;;;;;4.53;3.00;;;34.40;80.10;;;;;;1952006;73;21076;-79
2021/09/29 06:34:25;;;;;;;4.72;2.67;;;34.40;80.20;;;;;;1954378;72;21618;-80
2021/09/29 06:36:57;;;;;;;4.30;2.70;;;34.50;80.20;;;;;;1934086;72;21921;-80
2021/09/29 06:39:28;;;;;;;4.67;3.10;;;34.40;79.90;;;;;;1947664;73;21532;-80
2021/09/29 06:41:59;;;;;;;5.20;3.45;;;34.50;80.60;;;;;;1942976;72;21143;-80
2021/09/29 06:44:31;;;;;;;3.50;2.80;;;34.40;79.90;;;;;;1950765;73;21217;-79
2021/09/29 06:47:01;;;;;;;4.97;3.00;;;34.40;81.10;;;;;;1930762;73;21271;-78
2021/09/29 06:49:32;;;;;;;6.92;4.08;;;34.40;81.40;;;;;;1937967;72;21179;-80
2021/09/29 06:52:04;;;;;;;6.08;3.08;;;34.40;81.50;;;;;;1942146;72;21524;-79
2021/09/29 06:54:35;;;;;;;4.08;2.50;;;34.40;81.20;;;;;;1928798;72;21551;-78
2021/09/29 06:57:07;;;;;;;3.65;2.62;;;34.40;81.60;;;;;;1901221;74;21074;-79
2021/09/29 06:59:39;;;;;;;4.85;2.90;;;34.40;81.50;;;;;;1904872;72;21105;-81
2021/09/29 07:02:11;;;;;;;3.85;2.52;;;34.30;81.60;;;;;;1937382;73;21610;-80
2021/09/29 07:04:42;;;;;;;3.75;2.45;;;34.30;81.40;;;;;;1906347;73;21638;-82
2021/09/29 07:07:13;;;;;;;3.12;2.27;;;34.10;81.00;;;;;;1948815;73;21666;-80
2021/09/29 07:09:43;;;;;;;3.45;2.40;;;34.00;81.60;;;;;;1937047;72;21196;-81
2021/09/29 07:12:15;;;;;;;3.50;2.65;;;34.00;80.90;;;;;;1946090;72;21166;-80
2021/09/29 07:14:46;;;;;;;3.92;2.35;;;33.90;81.70;;;;;;1951924;73;21151;-80
2021/09/29 07:17:17;;;;;;;4.10;2.40;;;33.50;81.00;;;;;;1944224;73;21077;-81
2021/09/29 07:19:52;;;;;;;3.35;2.80;;;33.60;83.50;;;;;;1936609;73;21614;-78
2021/09/29 07:22:20;;;;;;;3.60;2.52;;;33.50;84.60;;;;;;1933387;73;21162;-81
2021/09/29 07:24:51;;;;;;;4.40;2.77;;;33.20;83.40;;;;;;1937230;72;21103;-78
2021/09/29 07:27:22;;;;;;;4.90;2.33;;;33.30;84.70;;;;;;1943235;72;21139;-81
2021/09/29 07:29:53;;;;;;;3.08;2.30;;;33.30;85.20;;;;;;1915969;73;21200;-80
2021/09/29 07:32:25;;;;;;;3.80;2.33;;;33.30;84.30;;;;;;1942633;73;21213;-84
2021/09/29 07:34:55;;;;;;;5.53;2.55;;;33.30;84.00;;;;;;1936629;73;21624;-82
2021/09/29 07:37:27;;;;;;;3.20;2.50;;;33.30;84.90;;;;;;1931411;72;21065;-81
2021/09/29 07:39:58;;;;;;;3.58;2.60;;;33.20;86.00;;;;;;1905126;74;21128;-81
2021/09/29 07:42:29;;;;;;;3.85;2.72;;;33.10;87.40;;;;;;1893551;75;21123;-82
2021/09/29 07:45:00;;;;;;;3.77;2.70;;;33.20;89.10;;;;;;1925936;72;21163;-81
2021/09/29 07:47:32;;;;;;;3.35;2.50;;;33.10;90.00;;;;;;1944533;73;21084;-80
2021/09/29 07:50:05;;;;;;;4.47;2.65;;;33.10;89.60;;;;;;1946525;72;21195;-82
2021/09/29 07:52:37;;;;;;;3.72;2.60;;;33.10;89.60;;;;;;1955748;72;21999;-81
2021/09/29 07:55:08;;;;;;;5.85;3.05;;;33.10;89.70;;;;;;1964810;72;21539;-80
2021/09/29 07:57:41;;;;;;;3.98;2.67;;;33.20;89.60;;;;;;1945754;72;21146;-81
2021/09/29 08:00:14;;;;;;;5.72;2.95;;;33.10;89.50;;;;;;1951068;73;21135;-81
2021/09/29 08:02:46;;;;;;;6.58;2.75;;;32.90;90.10;;;;;;1924078;72;21080;-82
2021/09/29 08:05:19;;;;;;;4.25;2.70;;;32.80;90.60;;;;;;1939725;72;21155;-82
2021/09/29 08:07:52;;;;;;;5.03;2.90;;;33.00;91.60;;;;;;1944230;72;21618;-81
2021/09/29 08:10:23;;;;;;;3.83;2.40;;;32.90;91.60;;;;;;1946541;73;21072;-82
2021/09/29 08:12:55;;;;;;;4.22;2.90;;;33.00;91.80;;;;;;1920572;73;21189;-81
2021/09/29 08:15:27;;;;;;;5.60;3.27;;;32.70;91.80;;;;;;1937090;73;21131;-78
2021/09/29 08:17:58;;;;;;;4.53;2.83;;;32.80;92.10;;;;;;1942487;72;21134;-80
2021/09/29 08:20:33;;;;;;;4.10;2.75;;;32.90;92.60;;;;;;1940414;72;21193;-81
2021/09/29 08:28:13;;;;;;;3.25;2.80;;;32.90;92.70;;;;;;1929305;72;21057;-78
2021/09/29 08:33:31;;;;;;;4.25;2.90;;;33.10;92.90;;;;;;1936158;73;21540;-80
2021/09/29 08:35:54;;;;;;;4.15;3.35;;;33.10;93.60;;;;;;1914492;73;22009;-79
2021/09/29 08:38:27;;;;;;;7.08;3.05;;;33.10;93.20;;;;;;1914380;73;21153;-78
2021/09/29 08:40:56;;;;;;;6.87;4.37;;;33.30;93.10;;;;;;1922340;72;21088;-80
2021/09/29 08:43:36;;;;;;;3.67;3.22;;;33.20;93.20;;;;;;1935578;73;21610;-82
2021/09/29 08:45:57;;;;;;;4.30;2.80;;;33.20;93.30;;;;;;1934985;73;21112;-80
2021/09/29 08:48:32;;;;;;;6.45;4.20;;;33.30;93.40;;;;;;1938298;73;21618;-78
2021/09/29 08:56:22;;;;;;;3.85;2.95;;;33.20;93.70;;;;;;1915222;74;22252;-80
2021/09/29 09:16:31;;;;;;;6.17;3.42;;;32.70;94.50;;;;;;1917847;74;21201;-79
2021/09/29 09:19:03;;;;;;;4.80;3.30;;;32.50;95.00;;;;;;1924520;73;21135;-78
2021/09/29 09:21:37;;;;;;;5.22;3.33;;;32.60;95.40;;;;;;1935996;72;21548;-79
2021/09/29 09:24:11;;;;;;;3.47;3.12;;;32.50;95.80;;;;;;1931156;72;21064;-80
2021/09/29 09:26:43;;;;;;;4.55;3.45;;;32.40;96.00;;;;;;1917976;73;21096;-79
2021/09/29 09:29:14;;;;;;;4.97;3.42;;;32.50;96.10;;;;;;1938328;72;21132;-79
2021/09/29 09:31:46;;;;;;;9.05;6.53;;;32.30;95.90;;;;;;1929895;72;21659;-79
2021/09/29 09:34:17;;;;;;;7.42;3.42;;;32.60;96.30;;;;;;1924795;72;21100;-79
2021/09/29 09:36:50;;;;;;;5.58;3.25;;;32.50;96.50;;;;;;1935693;73;21210;-79
2021/09/29 09:39:24;;;;;;;6.53;3.98;;;32.50;96.60;;;;;;1940676;73;21575;-78
2021/09/29 09:41:58;;;;;;;4.83;3.40;;;32.40;97.10;;;;;;1943238;73;22305;-80
2021/09/29 09:44:31;;;;;;;3.87;2.98;;;32.30;97.40;;;;;;1941358;72;21099;-78
2021/09/29 09:47:06;;;;;;;10.15;3.47;;;32.40;97.60;;;;;;1953180;73;21696;-78
2021/09/29 09:49:39;;;;;;;6.80;3.75;;;32.30;97.80;;;;;;1928875;73;21626;-77
2021/09/29 09:52:10;;;;;;;5.65;3.87;;;32.30;98.20;;;;;;1920835;73;21544;-79
2021/09/29 09:54:42;;;;;;;5.62;3.80;;;32.20;98.70;;;;;;1927041;73;21083;-78
2021/09/29 09:57:16;;;;;;;5.85;3.40;;;32.30;98.60;;;;;;1911414;74;21059;-79
2021/09/29 09:59:49;;;;;;;6.33;3.60;;;32.30;98.60;;;;;;1943602;72;21579;-79
2021/09/29 10:02:21;;;;;;;4.60;3.40;;;32.40;98.70;;;;;;1951299;73;21175;-77
2021/09/29 10:04:52;;;;;;;5.42;3.75;;;32.10;99.30;;;;;;1946182;73;21201;-79
2021/09/29 10:07:23;;;;;;;6.83;3.72;;;32.10;99.90;;;;;;1932158;73;21706;-80
2021/09/29 10:10:01;;;;;;;6.28;4.58;;;32.40;99.90;;;;;;1932359;73;21530;-79
2021/09/29 10:12:38;;;;;;;5.12;3.92;;;32.30;99.90;;;;;;1950202;73;21212;-80
2021/09/29 10:15:27;;;;;;;9.60;4.28;;;32.20;99.90;;;;;;1941107;73;21623;-80
2021/09/29 10:27:49;;;;;;;5.50;3.67;;;32.20;99.90;;;;;;1941443;73;21082;-80
2021/09/29 10:30:23;;;;;;;5.58;3.80;;;32.10;99.90;;;;;;1945416;73;21205;-80
2021/09/29 10:32:58;;;;;;;7.47;4.75;;;32.00;99.90;;;;;;1933110;73;21138;-80
2021/09/29 10:40:15;;;;;;;5.25;3.42;;;32.00;99.90;;;;;;1930537;73;21485;-80
2021/09/29 10:43:06;;;;;;;6.80;3.62;;;31.90;99.90;;;;;;1932242;73;21177;-82
2021/09/29 10:45:44;;;;;;;13.03;6.72;;;32.00;99.90;;;;;;1937764;73;21215;-82
2021/09/29 10:48:28;;;;;;;7.95;4.50;;;31.90;99.90;;;;;;1941558;73;21117;-80
2021/09/29 11:29:21;;;;;;;8.33;5.28;;;31.50;91.10;;;;;;1917476;74;21570;-80
2021/09/29 11:32:41;;;;;;;6.80;5.17;;;31.50;91.00;;;;;;1927145;73;21129;-80
2021/09/29 11:34:41;;;;;;;9.98;5.25;;;31.50;91.00;;;;;;1905671;73;21081;-79
2021/09/29 11:40:06;;;;;;;9.18;6.87;;;31.50;91.30;;;;;;1922865;73;21500;-79
2021/09/29 12:08:20;;;;;;;7.92;6.47;;;31.30;91.50;;;;;;1911316;73;21245;-78
2021/09/29 12:10:58;;;;;;;10.43;6.47;;;31.30;91.50;;;;;;1913417;74;21675;-80
2021/09/29 12:13:27;;;;;;;6.87;5.65;;;31.30;91.60;;;;;;1940824;73;21507;-80
2021/09/29 12:15:59;;;;;;;9.15;5.83;;;31.30;91.70;;;;;;1927576;73;21711;-78
2021/09/29 12:18:30;;;;;;;9.00;6.15;;;31.20;91.60;;;;;;1941206;73;21618;-78
2021/09/29 12:21:01;;;;;;;9.23;7.05;;;31.20;91.80;;;;;;1950754;73;21428;-78
2021/09/29 12:23:32;;;;;;;9.75;6.30;;;31.20;92.00;;;;;;1911910;73;21596;-82
2021/09/29 12:26:19;;;;;;;11.15;6.33;;;31.20;92.10;;;;;;1924112;74;21138;-79
2021/09/29 12:28:55;;;;;;;10.78;6.60;;;31.10;91.90;;;;;;1935014;73;21598;-80
2021/09/29 12:34:10;;;;;;;9.65;5.65;;;31.10;91.90;;;;;;1937289;73;21256;-79
2021/09/29 12:36:22;;;;;;;9.70;6.03;;;31.10;91.80;;;;;;1913994;74;21079;-79
2021/09/29 12:38:55;;;;;;;8.03;6.22;;;31.10;91.90;;;;;;1927077;72;21672;-81
2021/09/29 12:41:28;;;;;;;9.95;6.72;;;31.00;91.90;;;;;;1930352;74;21134;-79
2021/09/29 12:44:01;;;;;;;9.53;6.30;;;31.00;91.90;;;;;;1927059;73;21086;-88
2021/09/29 12:46:39;;;;;;;14.03;7.08;;;31.00;92.00;;;;;;1931774;73;21150;-88
2021/09/29 12:49:17;;;;;;;12.35;7.15;;;31.00;92.50;;;;;;1938264;73;21084;-88
2021/09/29 12:52:28;;;;;;;7.58;6.20;;;31.00;92.40;;;;;;1955984;73;21033;-90
2021/09/29 12:54:52;;;;;;;9.63;6.70;;;31.00;92.40;;;;;;1878489;76;21058;-89
2021/09/29 12:57:29;;;;;;;8.78;6.37;;;31.00;92.60;;;;;;1928295;72;21140;-89
2021/09/29 13:00:08;;;;;;;9.60;6.33;;;31.00;92.60;;;;;;1920535;73;21149;-91
2021/09/29 13:02:39;;;;;;;9.00;6.20;;;30.90;92.50;;;;;;1938909;70;21057;-89
2021/09/29 13:05:11;;;;;;;8.78;6.12;;;30.90;92.60;;;;;;1942015;72;21071;-88
2021/09/29 13:07:42;;;;;;;8.85;6.47;;;30.90;92.50;;;;;;1948880;73;21142;-89
2021/09/29 13:10:14;;;;;;;11.18;6.58;;;30.80;92.60;;;;;;1946406;73;21524;-89
2021/09/29 13:12:45;;;;;;;8.00;6.67;;;30.80;92.80;;;;;;1932400;73;21089;-88
2021/09/29 13:15:20;;;;;;;10.70;6.75;;;30.80;92.80;;;;;;1914757;73;21089;-90
2021/09/29 13:17:56;;;;;;;9.90;6.10;;;30.80;92.90;;;;;;1951894;73;21217;-88
2021/09/29 13:20:30;;;;;;;12.30;7.30;;;30.70;92.80;;;;;;1952878;73;21084;-89
2021/09/29 13:23:22;;;;;;;13.28;7.50;;;30.70;92.60;;;;;;1933552;73;21163;-88
2021/09/29 13:38:16;;;;;;;11.85;7.10;;;30.80;92.60;;;;;;1930000;73;21109;-89
2021/09/29 13:40:48;;;;;;;12.88;8.23;;;30.80;92.70;;;;;;1938955;73;21096;-90
2021/09/29 13:43:19;;;;;;;10.15;7.87;;;30.80;92.70;;;;;;1916846;73;21138;-88
2021/09/29 13:45:52;;;;;;;12.43;8.63;;;30.80;92.60;;;;;;1933444;73;21081;-90
2021/09/29 13:48:24;;;;;;;9.88;6.78;;;30.80;92.70;;;;;;1914583;73;21192;-89
2021/09/29 13:50:57;;;;;;;11.25;7.70;;;30.80;92.70;;;;;;1919561;73;21069;-89
2021/09/29 13:53:30;;;;;;;9.70;6.67;;;30.80;93.10;;;;;;1944766;73;21051;-89
2021/09/29 13:56:17;;;;;;;10.95;7.30;;;30.70;93.30;;;;;;1934077;73;21045;-89
2021/09/29 14:29:36;;;;;;;11.25;7.22;;;30.40;94.40;;;;;;1910316;73;21557;-89
2021/09/29 14:32:07;;;;;;;12.65;8.13;;;30.30;94.70;;;;;;1914386;74;21081;-89
2021/09/29 14:34:35;;;;;;;13.32;8.30;;;30.30;94.70;;;;;;1950076;73;21079;-89
2021/09/29 14:37:09;;;;;;;10.03;7.42;;;30.20;94.70;;;;;;1955969;73;21138;-90
2021/09/29 14:39:40;;;;;;;13.72;8.58;;;30.20;94.80;;;;;;1938189;73;21060;-87
2021/09/29 14:42:11;;;;;;;11.57;7.60;;;30.20;94.90;;;;;;1945379;73;21070;-88
2021/09/29 14:44:43;;;;;;;14.70;9.13;;;30.20;95.00;;;;;;1915717;74;21097;-90
2021/09/29 14:47:13;;;;;;;13.22;8.70;;;30.20;95.10;;;;;;1928695;73;21086;-89
2021/09/29 14:49:45;;;;;;;13.68;9.40;;;30.10;95.10;;;;;;1918754;73;21110;-90
2021/09/29 14:52:22;;;;;;;19.85;10.58;;;30.10;95.00;;;;;;1919785;73;21552;-89
2021/09/29 14:54:53;;;;;;;13.72;8.75;;;30.10;95.20;;;;;;1901001;73;21085;-89
2021/09/29 14:57:24;;;;;;;12.45;9.38;;;30.10;95.10;;;;;;1902620;75;21142;-89
2021/09/29 14:59:56;;;;;;;14.43;8.88;;;30.10;95.20;;;;;;1914012;73;21220;-88
2021/09/29 15:02:27;;;;;;;14.30;9.65;;;30.10;95.30;;;;;;1951725;73;21080;-89
2021/09/29 15:04:58;;;;;;;16.35;10.32;;;30.10;95.20;;;;;;1878804;74;21247;-88
2021/09/29 15:07:30;;;;;;;15.08;10.25;;;30.00;95.20;;;;;;1952662;72;21081;-89
2021/09/29 15:10:01;;;;;;;15.38;9.93;;;30.00;95.50;;;;;;1930238;72;21513;-88
2021/09/29 15:12:35;;;;;;;14.20;10.45;;;30.00;95.60;;;;;;1949836;73;21068;-89
2021/09/29 15:17:51;;;;;;;13.58;10.13;;;29.90;95.90;;;;;;1950442;73;21114;-88
2021/09/29 15:23:37;;;;;;;18.27;11.85;;;29.90;96.30;;;;;;1939266;72;21531;-88
2021/09/29 15:51:20;;;;;;;18.48;10.98;;;29.70;97.00;;;;;;1887534;74;21159;-87
2021/09/29 16:04:01;;;;;;;20.17;12.00;;;29.60;97.40;;;;;;1862238;75;21129;-89
2021/09/29 16:06:52;;;;;;;20.40;11.00;;;29.60;97.60;;;;;;1887039;75;21085;-89
2021/09/29 16:19:30;;;;;;;17.70;10.72;;;29.40;98.20;;;;;;1842483;75;21088;-88
2021/09/29 16:22:07;;;;;;;20.57;11.30;;;29.40;98.50;;;;;;1857371;76;21087;-89
2021/09/29 16:31:56;;;;;;;18.27;11.18;;;29.30;99.50;;;;;;1884608;75;21057;-89
2021/09/29 16:34:27;;;;;;;19.23;11.95;;;29.40;99.90;;;;;;1880612;74;21052;-88
2021/09/29 16:36:55;;;;;;;17.62;11.22;;;29.30;99.90;;;;;;1877455;74;21163;-89
2021/09/29 16:39:28;;;;;;;21.05;12.63;;;29.30;99.90;;;;;;1870135;75;21140;-89
2021/09/29 16:42:00;;;;;;;29.70;13.18;;;29.20;99.90;;;;;;1839873;76;21141;-88
2021/09/29 16:44:31;;;;;;;18.25;11.85;;;29.40;99.90;;;;;;1906248;73;21437;-89
2021/09/29 16:47:02;;;;;;;18.07;12.20;;;29.40;99.90;;;;;;1900495;75;21181;-88
2021/09/29 16:49:39;;;;;;;15.60;11.20;;;29.20;99.90;;;;;;1901340;74;21610;-89
2021/09/29 16:52:14;;;;;;;21.95;11.93;;;29.30;99.90;;;;;;1902312;73;21154;-90
2021/09/29 16:54:42;;;;;;;19.87;12.03;;;29.20;99.90;;;;;;1901031;75;21121;-89
2021/09/29 16:57:17;;;;;;;18.07;11.73;;;29.30;99.90;;;;;;1874849;74;21092;-88
2021/09/29 16:59:55;;;;;;;20.48;12.45;;;29.20;99.90;;;;;;1901459;74;21197;-88
2021/09/29 17:02:19;;;;;;;21.00;12.20;;;29.20;99.90;;;;;;1873816;76;21135;-88
2021/09/29 17:04:51;;;;;;;21.93;12.20;;;29.20;99.90;;;;;;1831440;77;21261;-88
2021/09/29 17:07:23;;;;;;;23.70;12.45;;;29.10;99.90;;;;;;1841713;77;21140;-88
2021/09/29 17:10:00;;;;;;;24.80;13.35;;;29.40;99.90;;;;;;1835105;76;21099;-88
2021/09/29 17:12:34;;;;;;;22.45;12.63;;;29.50;99.90;;;;;;1854428;76;22025;-88
2021/09/29 17:15:05;;;;;;;24.20;13.62;;;29.40;99.90;;;;;;1850224;77;21107;-89
2021/09/29 17:17:41;;;;;;;21.02;12.90;;;29.40;99.90;;;;;;1877869;76;21125;-87